Rechercher aéroport 
image banner adimage banner adimage banner ad
image banner ad

KMCE - Merced Rgnl/Macready Field

Situé à Merced, United States

ICAO - MCE, IATA - MCE

Données fournies par Airmate  

Information générale

Coordonnées: N37°17'5" W120°30'50"
Élévation : 155 feet MSL.
Variation magnétique : 15° East
Voir autres Aéroports à California

Données opérationnelles

Special qualification required
Heure actuelle UTC:
Heure actuelle locale:
Météo
METAR: KMCE 020653Z AUTO 31007KT 10SM CLR 22/12 A2999 RMK AO2 SLP155 T02220117
TAF: KMCE 020520Z 0206/0306 32006KT P6SM SKC
Voir NOTAMs / SUP AIP / TFR affectant cet aéroport [VIEW]
Fréquences de communication: [VIEW]

Pistes:

Identifiant RWYQFULongueur (ft)Largeur (ft)SurfaceLDA (ft)
12138°5914150ASPH5914
30318°5914150ASPH5914

Coordonnées de l'aéroport

Adresse: Merced United States

Autres services d'aviation

Écoles de pilotage

Gateway Air Center

Gateway Air Center

Vue satellite de KMCE